OPF weather

Miami-Opa Locka Executive Airport
Miami, Florida, United States

Public forecast

Using degrees Fahrenheit for public forecast. Weather courtesy of forecast.io.

METAR (pilot weather report)

Retrieved 2019/09/19 08:53 UTC (38 minutes ago):

KOPF 190853Z AUTO 05010KT 10SM CLR 27/18 A2992 RMK AO2 SLP131 T02670183 56008

TAF (pilot weather forecast)

Retrieved 2019/09/19 06:24 UTC (3 hours ago):

TAF KOPF 190521Z 1906/2006 05011KT P6SM VCSH SCT030 SCT050 FM191500 06013G23KT P6SM VCSH SCT030 SCT050 FM200100 06013KT P6SM SCT030